This is the latest recevied weather packets stored in our database for station/object EMGATE. If no packets are shown the sender has not sent any weather packets the latest 10 day(s).
| Time | Temp. | Humidity | Pressure | Rain* | Wind** | Luminosity | Snow |
|---|---|---|---|---|---|---|---|
| 1776976748 | 7.78° C | 40% | 1014.3 hPa | 0 mm | - | - | - |
| 1776975848 | 7.78° C | 41% | 1014.3 hPa | 0 mm | - | - | - |
| 1776974948 | 8.33° C | 40% | 1014.2 hPa | 0 mm | - | - | - |
| 1776974048 | 8.89° C | 38% | 1014.2 hPa | 0 mm | - | - | - |
| 1776973148 | 9.44° C | 38% | 1014.2 hPa | 0 mm | - | - | - |
| 1776972248 | 9.44° C | 38% | 1014.4 hPa | 0 mm | - | - | - |
| 1776971348 | 9.44° C | 40% | 1014.4 hPa | 0 mm | - | - | - |
| 1776970448 | 8.33° C | 41% | 1014.4 hPa | 0 mm | - | - | - |
| 1776969548 | 8.89° C | 42% | 1014.6 hPa | 0 mm | - | - | - |
| 1776968648 | 8.33° C | 43% | 1014.9 hPa | 0 mm | - | - | - |
| 1776967748 | 7.78° C | 44% | 1015.2 hPa | 0 mm | - | - | - |
| 1776966848 | 7.22° C | 47% | 1015.3 hPa | 0 mm | - | - | - |
| 1776965948 | 7.22° C | 47% | 1015.4 hPa | 0 mm | - | - | - |
| 1776965048 | 7.78° C | 47% | 1015.4 hPa | 0 mm | - | - | - |
| 1776964148 | 7.22° C | 50% | 1015.4 hPa | 0 mm | - | - | - |
| 1776963248 | 8.33° C | 50% | 1015.2 hPa | 0 mm | - | - | - |
| 1776962348 | 8.33° C | 47% | 1015.4 hPa | 0 mm | - | - | - |
| 1776961448 | 7.78° C | 50% | 1015.8 hPa | 0 mm | - | - | - |
| 1776960548 | 6.67° C | 54% | 1016 hPa | 0 mm | - | - | - |
| 1776959648 | 6.11° C | 59% | 1016.2 hPa | 0 mm | - | - | - |
| 1776958748 | 5° C | 59% | 1016.2 hPa | 0 mm | - | - | - |
| 1776957848 | 6.11° C | 53% | 1016.1 hPa | 0 mm | - | - | - |
| 1776956948 | 5.56° C | 58% | 1016 hPa | 0 mm | - | - | - |
| 1776956048 | 5° C | 61% | 1015.9 hPa | 0 mm | - | - | - |
| 1776955148 | 5° C | 61% | 1016.1 hPa | 0 mm | - | - | - |
* Rain latest hour (hover to see other rain measurements)
** Current wind speed in m/s (hover to see current wind gust speed)